sensor_id;sensor_type;location;lat;lon;timestamp;temperature;humidity
70762;DHT22;58360;0.000;0.000;2023-04-01T00:00:30;10.70;96.10
70762;DHT22;58360;0.000;0.000;2023-04-01T00:02:55;10.70;96.00
70762;DHT22;58360;0.000;0.000;2023-04-01T00:05:22;10.70;95.80
70762;DHT22;58360;0.000;0.000;2023-04-01T00:07:47;10.70;95.90
70762;DHT22;58360;0.000;0.000;2023-04-01T00:10:14;10.80;95.90
70762;DHT22;58360;0.000;0.000;2023-04-01T00:12:40;10.80;95.90
70762;DHT22;58360;0.000;0.000;2023-04-01T00:15:07;10.70;95.80
70762;DHT22;58360;0.000;0.000;2023-04-01T00:17:33;10.80;95.90
70762;DHT22;58360;0.000;0.000;2023-04-01T00:20:00;10.70;95.90
70762;DHT22;58360;0.000;0.000;2023-04-01T00:22:26;10.70;96.20
70762;DHT22;58360;0.000;0.000;2023-04-01T00:24:53;10.70;95.90
70762;DHT22;58360;0.000;0.000;2023-04-01T00:27:18;10.70;95.90
70762;DHT22;58360;0.000;0.000;2023-04-01T00:29:45;10.70;95.90
70762;DHT22;58360;0.000;0.000;2023-04-01T00:32:12;10.80;96.10
70762;DHT22;58360;0.000;0.000;2023-04-01T00:34:38;10.80;95.80
70762;DHT22;58360;0.000;0.000;2023-04-01T00:37:05;10.70;95.90
70762;DHT22;58360;0.000;0.000;2023-04-01T00:39:32;10.80;96.00
70762;DHT22;58360;0.000;0.000;2023-04-01T00:41:59;10.70;95.90
70762;DHT22;58360;0.000;0.000;2023-04-01T00:44:29;10.80;95.90
70762;DHT22;58360;0.000;0.000;2023-04-01T00:46:56;10.80;95.90
70762;DHT22;58360;0.000;0.000;2023-04-01T00:49:25;10.90;95.70
70762;DHT22;58360;0.000;0.000;2023-04-01T00:51:54;10.90;95.70
70762;DHT22;58360;0.000;0.000;2023-04-01T00:54:22;10.90;95.80
70762;DHT22;58360;0.000;0.000;2023-04-01T00:56:56;10.80;95.90
70762;DHT22;58360;0.000;0.000;2023-04-01T00:59:29;10.70;95.90
70762;DHT22;58360;0.000;0.000;2023-04-01T01:01:56;10.80;95.90
70762;DHT22;58360;0.000;0.000;2023-04-01T01:04:28;10.80;95.80
70762;DHT22;58360;0.000;0.000;2023-04-01T01:07:16;10.90;95.70
70762;DHT22;58360;0.000;0.000;2023-04-01T01:12:16;10.90;95.30
70762;DHT22;58360;0.000;0.000;2023-04-01T01:26:04;10.90;95.40
70762;DHT22;58360;0.000;0.000;2023-04-01T01:31:26;11.10;95.20
70762;DHT22;58360;0.000;0.000;2023-04-01T01:36:38;10.90;95.40
70762;DHT22;58360;0.000;0.000;2023-04-01T01:39:07;10.90;95.40
70762;DHT22;58360;0.000;0.000;2023-04-01T01:41:35;11.00;95.50
70762;DHT22;58360;0.000;0.000;2023-04-01T01:44:03;11.20;95.20
70762;DHT22;58360;0.000;0.000;2023-04-01T01:46:31;11.30;94.90
70762;DHT22;58360;0.000;0.000;2023-04-01T01:48:57;11.20;95.10
70762;DHT22;58360;0.000;0.000;2023-04-01T01:51:26;11.30;95.00
70762;DHT22;58360;0.000;0.000;2023-04-01T01:53:53;11.20;94.90
70762;DHT22;58360;0.000;0.000;2023-04-01T01:56:21;11.00;95.20
70762;DHT22;58360;0.000;0.000;2023-04-01T01:58:52;11.00;95.30
70762;DHT22;58360;0.000;0.000;2023-04-01T02:01:24;11.00;95.30
70762;DHT22;58360;0.000;0.000;2023-04-01T02:03:51;11.10;95.10
70762;DHT22;58360;0.000;0.000;2023-04-01T02:06:21;11.00;94.90
70762;DHT22;58360;0.000;0.000;2023-04-01T02:08:51;11.00;95.00
70762;DHT22;58360;0.000;0.000;2023-04-01T02:11:20;10.90;95.10
70762;DHT22;58360;0.000;0.000;2023-04-01T02:14:01;11.00;95.10
70762;DHT22;58360;0.000;0.000;2023-04-01T02:16:51;11.10;95.00
70762;DHT22;58360;0.000;0.000;2023-04-01T02:19:21;11.10;95.00
70762;DHT22;58360;0.000;0.000;2023-04-01T02:21:55;11.10;95.00
70762;DHT22;58360;0.000;0.000;2023-04-01T02:24:23;11.10;94.80
70762;DHT22;58360;0.000;0.000;2023-04-01T02:26:51;10.90;94.90
70762;DHT22;58360;0.000;0.000;2023-04-01T02:29:20;10.80;95.50
70762;DHT22;58360;0.000;0.000;2023-04-01T02:31:47;10.90;95.30
70762;DHT22;58360;0.000;0.000;2023-04-01T02:34:14;11.00;95.10
70762;DHT22;58360;0.000;0.000;2023-04-01T02:36:40;10.90;95.00
70762;DHT22;58360;0.000;0.000;2023-04-01T02:39:07;11.00;94.90
70762;DHT22;58360;0.000;0.000;2023-04-01T02:41:39;11.00;94.90
70762;DHT22;58360;0.000;0.000;2023-04-01T02:44:05;11.10;94.80
70762;DHT22;58360;0.000;0.000;2023-04-01T02:46:31;11.10;94.80
70762;DHT22;58360;0.000;0.000;2023-04-01T02:48:57;11.00;95.00
70762;DHT22;58360;0.000;0.000;2023-04-01T02:51:22;10.90;95.10
70762;DHT22;58360;0.000;0.000;2023-04-01T02:53:48;10.80;95.20
70762;DHT22;58360;0.000;0.000;2023-04-01T02:56:14;10.80;95.20
70762;DHT22;58360;0.000;0.000;2023-04-01T02:58:39;10.90;95.10
70762;DHT22;58360;0.000;0.000;2023-04-01T03:01:05;10.90;95.20
70762;DHT22;58360;0.000;0.000;2023-04-01T03:03:31;10.90;95.30
70762;DHT22;58360;0.000;0.000;2023-04-01T03:05:56;10.90;95.40
70762;DHT22;58360;0.000;0.000;2023-04-01T03:08:24;11.00;95.00
70762;DHT22;58360;0.000;0.000;2023-04-01T03:10:49;11.00;95.00
70762;DHT22;58360;0.000;0.000;2023-04-01T03:13:15;11.00;95.10
70762;DHT22;58360;0.000;0.000;2023-04-01T03:15:41;11.00;94.90
70762;DHT22;58360;0.000;0.000;2023-04-01T03:18:07;10.90;95.20
70762;DHT22;58360;0.000;0.000;2023-04-01T03:20:32;10.90;95.10
70762;DHT22;58360;0.000;0.000;2023-04-01T03:22:58;10.90;95.20
70762;DHT22;58360;0.000;0.000;2023-04-01T03:25:24;10.80;95.10
70762;DHT22;58360;0.000;0.000;2023-04-01T03:27:49;10.90;94.90
70762;DHT22;58360;0.000;0.000;2023-04-01T03:30:15;10.80;95.10
70762;DHT22;58360;0.000;0.000;2023-04-01T03:32:41;10.80;95.20
70762;DHT22;58360;0.000;0.000;2023-04-01T03:35:07;10.90;95.00
70762;DHT22;58360;0.000;0.000;2023-04-01T03:37:35;10.90;95.00
70762;DHT22;58360;0.000;0.000;2023-04-01T03:40:00;10.80;95.20
70762;DHT22;58360;0.000;0.000;2023-04-01T03:42:26;10.90;95.10
70762;DHT22;58360;0.000;0.000;2023-04-01T03:44:52;11.00;94.90
70762;DHT22;58360;0.000;0.000;2023-04-01T03:47:17;11.00;94.80
70762;DHT22;58360;0.000;0.000;2023-04-01T03:49:43;10.80;94.90
70762;DHT22;58360;0.000;0.000;2023-04-01T03:52:10;10.80;95.20
70762;DHT22;58360;0.000;0.000;2023-04-01T03:54:36;10.90;95.20
70762;DHT22;58360;0.000;0.000;2023-04-01T03:57:02;10.80;95.30
70762;DHT22;58360;0.000;0.000;2023-04-01T03:59:27;10.90;95.10
70762;DHT22;58360;0.000;0.000;2023-04-01T04:01:53;10.90;94.80
70762;DHT22;58360;0.000;0.000;2023-04-01T04:04:19;11.00;94.70
70762;DHT22;58360;0.000;0.000;2023-04-01T04:06:45;10.90;94.80
70762;DHT22;58360;0.000;0.000;2023-04-01T04:09:10;10.80;94.90
70762;DHT22;58360;0.000;0.000;2023-04-01T04:11:36;10.80;94.80
70762;DHT22;58360;0.000;0.000;2023-04-01T04:14:02;10.80;94.80
70762;DHT22;58360;0.000;0.000;2023-04-01T04:16:28;10.80;94.90
70762;DHT22;58360;0.000;0.000;2023-04-01T04:18:57;10.80;94.70
70762;DHT22;58360;0.000;0.000;2023-04-01T04:21:22;10.80;94.90
70762;DHT22;58360;0.000;0.000;2023-04-01T04:23:48;10.80;94.60
70762;DHT22;58360;0.000;0.000;2023-04-01T04:26:14;10.80;94.90
70762;DHT22;58360;0.000;0.000;2023-04-01T04:28:40;10.80;94.90
70762;DHT22;58360;0.000;0.000;2023-04-01T04:31:07;10.80;95.00
70762;DHT22;58360;0.000;0.000;2023-04-01T04:33:34;10.80;94.90
70762;DHT22;58360;0.000;0.000;2023-04-01T04:36:00;10.80;94.80
70762;DHT22;58360;0.000;0.000;2023-04-01T04:38:26;10.80;95.00
70762;DHT22;58360;0.000;0.000;2023-04-01T04:40:52;10.80;95.00
70762;DHT22;58360;0.000;0.000;2023-04-01T04:43:19;10.90;94.80
70762;DHT22;58360;0.000;0.000;2023-04-01T04:45:45;10.80;94.90
70762;DHT22;58360;0.000;0.000;2023-04-01T04:48:12;10.70;95.10
70762;DHT22;58360;0.000;0.000;2023-04-01T04:50:47;10.70;95.00
70762;DHT22;58360;0.000;0.000;2023-04-01T04:53:14;10.80;95.00
70762;DHT22;58360;0.000;0.000;2023-04-01T04:55:49;10.90;94.70
70762;DHT22;58360;0.000;0.000;2023-04-01T04:58:15;10.90;94.40
70762;DHT22;58360;0.000;0.000;2023-04-01T05:00:41;10.80;94.60
70762;DHT22;58360;0.000;0.000;2023-04-01T05:03:08;10.70;94.90
70762;DHT22;58360;0.000;0.000;2023-04-01T05:05:34;10.70;95.00
70762;DHT22;58360;0.000;0.000;2023-04-01T05:08:00;10.80;94.90
70762;DHT22;58360;0.000;0.000;2023-04-01T05:10:26;10.80;94.90
70762;DHT22;58360;0.000;0.000;2023-04-01T05:12:52;10.90;94.70
70762;DHT22;58360;0.000;0.000;2023-04-01T05:15:18;10.90;94.80
70762;DHT22;58360;0.000;0.000;2023-04-01T05:17:43;10.90;94.90
70762;DHT22;58360;0.000;0.000;2023-04-01T05:20:12;10.90;94.70
70762;DHT22;58360;0.000;0.000;2023-04-01T05:22:40;10.90;94.60
70762;DHT22;58360;0.000;0.000;2023-04-01T05:25:12;10.70;95.20
70762;DHT22;58360;0.000;0.000;2023-04-01T05:27:37;10.80;95.00
70762;DHT22;58360;0.000;0.000;2023-04-01T05:30:04;10.80;94.70
70762;DHT22;58360;0.000;0.000;2023-04-01T05:32:31;10.70;95.10
70762;DHT22;58360;0.000;0.000;2023-04-01T05:34:56;10.60;95.00
70762;DHT22;58360;0.000;0.000;2023-04-01T05:37:22;10.60;95.50
70762;DHT22;58360;0.000;0.000;2023-04-01T05:39:48;10.40;95.40
70762;DHT22;58360;0.000;0.000;2023-04-01T05:42:14;10.60;95.40
70762;DHT22;58360;0.000;0.000;2023-04-01T05:44:41;10.40;95.30
70762;DHT22;58360;0.000;0.000;2023-04-01T05:47:06;10.50;95.40
70762;DHT22;58360;0.000;0.000;2023-04-01T05:49:33;10.50;95.50
70762;DHT22;58360;0.000;0.000;2023-04-01T05:51:59;10.60;95.20
70762;DHT22;58360;0.000;0.000;2023-04-01T05:54:24;10.50;95.20
70762;DHT22;58360;0.000;0.000;2023-04-01T05:56:50;10.50;95.50
70762;DHT22;58360;0.000;0.000;2023-04-01T05:59:16;10.50;95.30
70762;DHT22;58360;0.000;0.000;2023-04-01T06:01:41;10.60;95.30
70762;DHT22;58360;0.000;0.000;2023-04-01T06:04:12;10.60;95.20
70762;DHT22;58360;0.000;0.000;2023-04-01T06:06:39;10.50;95.30
70762;DHT22;58360;0.000;0.000;2023-04-01T06:09:17;10.50;95.60
70762;DHT22;58360;0.000;0.000;2023-04-01T06:12:19;10.50;95.50
70762;DHT22;58360;0.000;0.000;2023-04-01T06:31:29;10.50;95.20
70762;DHT22;58360;0.000;0.000;2023-04-01T06:54:14;10.80;95.00
70762;DHT22;58360;0.000;0.000;2023-04-01T06:56:44;10.90;94.80
70762;DHT22;58360;0.000;0.000;2023-04-01T06:59:19;10.80;94.90
70762;DHT22;58360;0.000;0.000;2023-04-01T07:01:50;10.80;95.00
70762;DHT22;58360;0.000;0.000;2023-04-01T07:04:19;11.00;94.80
70762;DHT22;58360;0.000;0.000;2023-04-01T07:06:55;11.00;94.50
70762;DHT22;58360;0.000;0.000;2023-04-01T07:09:46;11.00;94.60
70762;DHT22;58360;0.000;0.000;2023-04-01T07:12:25;11.00;94.50
70762;DHT22;58360;0.000;0.000;2023-04-01T07:14:54;11.00;94.30
70762;DHT22;58360;0.000;0.000;2023-04-01T07:17:25;10.90;94.50
70762;DHT22;58360;0.000;0.000;2023-04-01T07:20:13;10.80;94.80
70762;DHT22;58360;0.000;0.000;2023-04-01T07:22:45;10.60;95.00
70762;DHT22;58360;0.000;0.000;2023-04-01T07:25:15;10.60;95.30
70762;DHT22;58360;0.000;0.000;2023-04-01T07:27:45;10.70;94.90
70762;DHT22;58360;0.000;0.000;2023-04-01T07:30:15;10.60;95.40
70762;DHT22;58360;0.000;0.000;2023-04-01T07:44:27;10.70;95.10
70762;DHT22;58360;0.000;0.000;2023-04-01T07:47:15;10.70;95.40
70762;DHT22;58360;0.000;0.000;2023-04-01T07:55:00;10.90;95.00
70762;DHT22;58360;0.000;0.000;2023-04-01T07:57:50;11.00;94.50
70762;DHT22;58360;0.000;0.000;2023-04-01T08:00:24;10.80;95.10
70762;DHT22;58360;0.000;0.000;2023-04-01T08:11:27;10.90;95.30
70762;DHT22;58360;0.000;0.000;2023-04-01T08:17:24;11.10;94.70
70762;DHT22;58360;0.000;0.000;2023-04-01T08:20:07;10.90;94.80
70762;DHT22;58360;0.000;0.000;2023-04-01T08:22:38;11.00;94.90
70762;DHT22;58360;0.000;0.000;2023-04-01T08:25:09;10.90;95.20
70762;DHT22;58360;0.000;0.000;2023-04-01T08:27:43;11.10;94.70
70762;DHT22;58360;0.000;0.000;2023-04-01T08:30:23;11.20;94.30
70762;DHT22;58360;0.000;0.000;2023-04-01T08:33:00;11.20;94.50
70762;DHT22;58360;0.000;0.000;2023-04-01T08:35:40;11.30;94.50
70762;DHT22;58360;0.000;0.000;2023-04-01T08:38:31;11.30;94.30
70762;DHT22;58360;0.000;0.000;2023-04-01T08:41:23;11.20;94.40
70762;DHT22;58360;0.000;0.000;2023-04-01T08:56:26;11.50;94.10
70762;DHT22;58360;0.000;0.000;2023-04-01T08:58:58;11.60;94.10
70762;DHT22;58360;0.000;0.000;2023-04-01T09:02:04;11.60;93.70
70762;DHT22;58360;0.000;0.000;2023-04-01T09:07:51;11.60;93.90
70762;DHT22;58360;0.000;0.000;2023-04-01T09:15:47;11.70;93.30
70762;DHT22;58360;0.000;0.000;2023-04-01T09:26:50;11.50;93.90
70762;DHT22;58360;0.000;0.000;2023-04-01T09:29:48;11.40;93.80
70762;DHT22;58360;0.000;0.000;2023-04-01T09:38:37;11.40;94.80
70762;DHT22;58360;0.000;0.000;2023-04-01T09:44:13;11.10;94.40
70762;DHT22;58360;0.000;0.000;2023-04-01T09:46:57;11.30;94.40
70762;DHT22;58360;0.000;0.000;2023-04-01T09:52:41;11.70;94.10
70762;DHT22;58360;0.000;0.000;2023-04-01T09:55:35;11.50;93.50
70762;DHT22;58360;0.000;0.000;2023-04-01T10:10:46;12.00;93.00
70762;DHT22;58360;0.000;0.000;2023-04-01T10:14:23;12.00;93.00
70762;DHT22;58360;0.000;0.000;2023-04-01T10:19:34;11.50;93.80
70762;DHT22;58360;0.000;0.000;2023-04-01T10:22:13;11.30;93.80
70762;DHT22;58360;0.000;0.000;2023-04-01T10:36:21;12.00;93.90
70762;DHT22;58360;0.000;0.000;2023-04-01T10:39:08;12.00;93.20
70762;DHT22;58360;0.000;0.000;2023-04-01T10:44:27;12.20;93.20
70762;DHT22;58360;0.000;0.000;2023-04-01T10:58:39;12.00;93.10
70762;DHT22;58360;0.000;0.000;2023-04-01T11:04:36;12.20;92.80
70762;DHT22;58360;0.000;0.000;2023-04-01T11:07:29;12.30;92.90
70762;DHT22;58360;0.000;0.000;2023-04-01T11:20:57;12.50;92.20
70762;DHT22;58360;0.000;0.000;2023-04-01T11:54:36;11.90;93.40
70762;DHT22;58360;0.000;0.000;2023-04-01T12:33:56;12.80;91.90
70762;DHT22;58360;0.000;0.000;2023-04-01T12:36:37;13.00;91.80
70762;DHT22;58360;0.000;0.000;2023-04-01T12:55:41;12.80;92.90
70762;DHT22;58360;0.000;0.000;2023-04-01T13:01:25;12.80;92.00
70762;DHT22;58360;0.000;0.000;2023-04-01T13:04:11;12.70;91.70
70762;DHT22;58360;0.000;0.000;2023-04-01T13:17:36;12.70;92.10
70762;DHT22;58360;0.000;0.000;2023-04-01T13:20:11;12.70;91.70
70762;DHT22;58360;0.000;0.000;2023-04-01T13:26:17;12.60;92.50
70762;DHT22;58360;0.000;0.000;2023-04-01T13:29:05;12.70;91.70
70762;DHT22;58360;0.000;0.000;2023-04-01T13:32:06;12.80;91.70
70762;DHT22;58360;0.000;0.000;2023-04-01T13:34:55;12.40;92.00
70762;DHT22;58360;0.000;0.000;2023-04-01T13:40:43;12.20;93.00
70762;DHT22;58360;0.000;0.000;2023-04-01T13:43:16;12.20;92.70
70762;DHT22;58360;0.000;0.000;2023-04-01T13:51:31;12.80;91.90
70762;DHT22;58360;0.000;0.000;2023-04-01T13:54:19;12.70;91.80
70762;DHT22;58360;0.000;0.000;2023-04-01T13:58:07;12.80;91.40
70762;DHT22;58360;0.000;0.000;2023-04-01T14:00:22;12.70;91.80
70762;DHT22;58360;0.000;0.000;2023-04-01T14:03:14;12.60;92.10
70762;DHT22;58360;0.000;0.000;2023-04-01T14:14:18;12.40;92.20
70762;DHT22;58360;0.000;0.000;2023-04-01T14:25:54;12.50;90.80
70762;DHT22;58360;0.000;0.000;2023-04-01T14:42:39;13.00;90.10
70762;DHT22;58360;0.000;0.000;2023-04-01T14:45:25;12.70;90.60
70762;DHT22;58360;0.000;0.000;2023-04-01T14:48:34;12.70;91.00
70762;DHT22;58360;0.000;0.000;2023-04-01T14:54:22;12.80;90.90
70762;DHT22;58360;0.000;0.000;2023-04-01T14:57:14;12.60;90.70
70762;DHT22;58360;0.000;0.000;2023-04-01T15:03:16;12.30;91.90
70762;DHT22;58360;0.000;0.000;2023-04-01T15:05:52;12.40;91.20
70762;DHT22;58360;0.000;0.000;2023-04-01T15:11:24;12.20;91.30
70762;DHT22;58360;0.000;0.000;2023-04-01T15:14:24;12.40;91.10
70762;DHT22;58360;0.000;0.000;2023-04-01T15:27:51;12.50;91.10
70762;DHT22;58360;0.000;0.000;2023-04-01T15:33:30;12.10;91.50
70762;DHT22;58360;0.000;0.000;2023-04-01T15:38:44;11.80;91.40
70762;DHT22;58360;0.000;0.000;2023-04-01T15:41:20;11.80;92.50
70762;DHT22;58360;0.000;0.000;2023-04-01T15:43:49;11.80;93.30
70762;DHT22;58360;0.000;0.000;2023-04-01T15:46:48;11.70;93.60
70762;DHT22;58360;0.000;0.000;2023-04-01T15:57:50;11.90;92.50
70762;DHT22;58360;0.000;0.000;2023-04-01T16:00:30;11.80;93.10
70762;DHT22;58360;0.000;0.000;2023-04-01T16:06:43;11.40;93.00
70762;DHT22;58360;0.000;0.000;2023-04-01T16:12:18;11.40;93.50
70762;DHT22;58360;0.000;0.000;2023-04-01T16:15:24;11.30;93.30
70762;DHT22;58360;0.000;0.000;2023-04-01T16:20:44;11.30;93.50
70762;DHT22;58360;0.000;0.000;2023-04-01T16:23:20;11.30;93.80
70762;DHT22;58360;0.000;0.000;2023-04-01T16:26:01;11.20;94.00
70762;DHT22;58360;0.000;0.000;2023-04-01T16:28:34;11.30;94.00
70762;DHT22;58360;0.000;0.000;2023-04-01T16:41:36;11.70;93.10
70762;DHT22;58360;0.000;0.000;2023-04-01T16:44:20;11.60;93.20
70762;DHT22;58360;0.000;0.000;2023-04-01T16:46:52;11.50;93.40
70762;DHT22;58360;0.000;0.000;2023-04-01T16:49:46;11.50;93.20
70762;DHT22;58360;0.000;0.000;2023-04-01T16:55:20;11.40;94.00
70762;DHT22;58360;0.000;0.000;2023-04-01T16:57:56;11.40;93.50
70762;DHT22;58360;0.000;0.000;2023-04-01T17:00:26;11.50;93.50
70762;DHT22;58360;0.000;0.000;2023-04-01T17:02:56;11.50;93.40
70762;DHT22;58360;0.000;0.000;2023-04-01T17:05:44;11.30;94.00
70762;DHT22;58360;0.000;0.000;2023-04-01T17:11:54;11.40;93.90
70762;DHT22;58360;0.000;0.000;2023-04-01T17:14:31;11.30;94.10
70762;DHT22;58360;0.000;0.000;2023-04-01T17:33:30;11.00;94.30
70762;DHT22;58360;0.000;0.000;2023-04-01T17:38:45;11.00;95.00
70762;DHT22;58360;0.000;0.000;2023-04-01T17:52:37;11.30;93.90
70762;DHT22;58360;0.000;0.000;2023-04-01T18:01:19;10.80;94.40
70762;DHT22;58360;0.000;0.000;2023-04-01T18:04:34;10.80;95.10
70762;DHT22;58360;0.000;0.000;2023-04-01T18:10:16;10.80;94.30
70762;DHT22;58360;0.000;0.000;2023-04-01T18:21:33;11.10;93.70
70762;DHT22;58360;0.000;0.000;2023-04-01T18:24:26;11.10;94.50
70762;DHT22;58360;0.000;0.000;2023-04-01T18:27:03;10.90;94.20
70762;DHT22;58360;0.000;0.000;2023-04-01T18:32:15;11.00;94.50
70762;DHT22;58360;0.000;0.000;2023-04-01T18:39:53;10.80;94.60
70762;DHT22;58360;0.000;0.000;2023-04-01T18:45:21;10.70;95.10
70762;DHT22;58360;0.000;0.000;2023-04-01T18:48:13;10.80;95.10
70762;DHT22;58360;0.000;0.000;2023-04-01T18:51:13;10.70;95.10
70762;DHT22;58360;0.000;0.000;2023-04-01T18:56:04;10.80;95.00
70762;DHT22;58360;0.000;0.000;2023-04-01T19:01:36;11.00;94.90
70762;DHT22;58360;0.000;0.000;2023-04-01T19:06:59;11.10;94.80
70762;DHT22;58360;0.000;0.000;2023-04-01T19:09:49;10.70;94.80
70762;DHT22;58360;0.000;0.000;2023-04-01T19:21:19;10.80;94.90
70762;DHT22;58360;0.000;0.000;2023-04-01T19:24:02;10.80;95.60
70762;DHT22;58360;0.000;0.000;2023-04-01T19:27:18;10.80;95.50
70762;DHT22;58360;0.000;0.000;2023-04-01T19:29:34;11.00;95.30
70762;DHT22;58360;0.000;0.000;2023-04-01T19:32:28;11.00;94.90
70762;DHT22;58360;0.000;0.000;2023-04-01T19:37:50;11.10;95.10
70762;DHT22;58360;0.000;0.000;2023-04-01T19:43:54;11.10;94.80
70762;DHT22;58360;0.000;0.000;2023-04-01T19:46:51;11.00;95.40
70762;DHT22;58360;0.000;0.000;2023-04-01T19:52:00;11.10;95.10
70762;DHT22;58360;0.000;0.000;2023-04-01T19:57:05;11.20;95.00
70762;DHT22;58360;0.000;0.000;2023-04-01T20:04:43;11.30;94.80
70762;DHT22;58360;0.000;0.000;2023-04-01T20:07:24;11.30;94.70
70762;DHT22;58360;0.000;0.000;2023-04-01T20:15:46;10.90;95.40
70762;DHT22;58360;0.000;0.000;2023-04-01T20:18:17;11.00;95.60
70762;DHT22;58360;0.000;0.000;2023-04-01T20:20:54;11.00;95.40
70762;DHT22;58360;0.000;0.000;2023-04-01T20:26:14;11.30;95.00
70762;DHT22;58360;0.000;0.000;2023-04-01T20:31:34;11.40;94.40
70762;DHT22;58360;0.000;0.000;2023-04-01T20:37:29;11.00;95.10
70762;DHT22;58360;0.000;0.000;2023-04-01T20:45:59;10.80;95.60
70762;DHT22;58360;0.000;0.000;2023-04-01T20:48:30;10.90;95.80
70762;DHT22;58360;0.000;0.000;2023-04-01T20:51:08;11.20;95.30
70762;DHT22;58360;0.000;0.000;2023-04-01T20:53:36;11.20;94.80
70762;DHT22;58360;0.000;0.000;2023-04-01T21:01:28;11.20;95.10
70762;DHT22;58360;0.000;0.000;2023-04-01T21:13:17;10.60;96.00
70762;DHT22;58360;0.000;0.000;2023-04-01T21:15:42;10.80;96.00
70762;DHT22;58360;0.000;0.000;2023-04-01T21:32:45;10.40;96.20
70762;DHT22;58360;0.000;0.000;2023-04-01T21:50:05;10.50;95.70
70762;DHT22;58360;0.000;0.000;2023-04-01T22:04:37;10.40;95.50
70762;DHT22;58360;0.000;0.000;2023-04-01T22:12:35;10.40;95.00
70762;DHT22;58360;0.000;0.000;2023-04-01T22:15:52;10.20;95.40
70762;DHT22;58360;0.000;0.000;2023-04-01T22:18:08;10.00;96.00
70762;DHT22;58360;0.000;0.000;2023-04-01T22:20:59;10.00;95.90
70762;DHT22;58360;0.000;0.000;2023-04-01T22:23:57;10.00;96.30
70762;DHT22;58360;0.000;0.000;2023-04-01T22:32:23;10.00;96.10
70762;DHT22;58360;0.000;0.000;2023-04-01T22:40:45;10.10;96.10
70762;DHT22;58360;0.000;0.000;2023-04-01T22:48:51;10.10;95.60
70762;DHT22;58360;0.000;0.000;2023-04-01T22:51:24;10.00;95.50
70762;DHT22;58360;0.000;0.000;2023-04-01T22:54:02;10.10;96.00
70762;DHT22;58360;0.000;0.000;2023-04-01T22:56:36;10.00;95.60
70762;DHT22;58360;0.000;0.000;2023-04-01T22:59:08;9.90;96.10
70762;DHT22;58360;0.000;0.000;2023-04-01T23:01:50;9.90;95.90
70762;DHT22;58360;0.000;0.000;2023-04-01T23:04:17;10.00;95.70
70762;DHT22;58360;0.000;0.000;2023-04-01T23:06:56;10.00;95.70
70762;DHT22;58360;0.000;0.000;2023-04-01T23:09:25;10.10;95.20
70762;DHT22;58360;0.000;0.000;2023-04-01T23:14:33;10.00;95.30
70762;DHT22;58360;0.000;0.000;2023-04-01T23:19:52;9.90;95.60
70762;DHT22;58360;0.000;0.000;2023-04-01T23:38:17;9.90;95.80
70762;DHT22;58360;0.000;0.000;2023-04-01T23:40:43;9.90;95.70
70762;DHT22;58360;0.000;0.000;2023-04-01T23:45:48;10.00;94.70
70762;DHT22;58360;0.000;0.000;2023-04-01T23:48:15;10.20;95.20
70762;DHT22;58360;0.000;0.000;2023-04-01T23:50:43;9.90;94.90
70762;DHT22;58360;0.000;0.000;2023-04-01T23:53:21;9.80;95.20
70762;DHT22;58360;0.000;0.000;2023-04-01T23:55:48;9.70;95.50
70762;DHT22;58360;0.000;0.000;2023-04-01T23:58:22;9.80;95.90
